createdAt,value
2022-12-23T00:00:17.912Z,16.29
2022-12-23T00:02:46.929Z,16.19
2022-12-23T00:05:14.637Z,16.22
2022-12-23T00:07:41.717Z,16.09
2022-12-23T00:10:10.095Z,16.22
2022-12-23T00:12:37.350Z,16.30
2022-12-23T00:15:05.411Z,16.26
2022-12-23T00:17:32.992Z,16.09
2022-12-23T00:20:01.743Z,16.27
2022-12-23T00:22:29.794Z,16.36
2022-12-23T00:24:59.668Z,16.38
2022-12-23T00:27:28.777Z,16.39
2022-12-23T00:30:01.874Z,16.39
2022-12-23T00:32:29.117Z,16.38
2022-12-23T00:34:56.853Z,16.40
2022-12-23T00:37:25.911Z,16.42
2022-12-23T00:39:55.197Z,16.42
2022-12-23T00:42:23.875Z,16.44
2022-12-23T00:44:54.458Z,16.42
2022-12-23T00:47:21.951Z,16.39
2022-12-23T00:49:51.903Z,16.31
2022-12-23T00:52:20.511Z,16.40
2022-12-23T00:54:50.432Z,16.34
2022-12-23T00:57:18.948Z,16.37
2022-12-23T00:59:46.533Z,16.36
2022-12-23T01:02:13.887Z,16.46
2022-12-23T01:04:41.251Z,16.53
2022-12-23T01:07:08.579Z,16.54
2022-12-23T01:09:36.492Z,16.56
2022-12-23T01:12:06.452Z,16.27
2022-12-23T01:14:35.552Z,16.48
2022-12-23T01:17:03.679Z,16.46
2022-12-23T01:19:31.647Z,16.56
2022-12-23T01:21:59.000Z,16.53
2022-12-23T01:24:28.571Z,16.54
2022-12-23T01:26:55.902Z,16.58
2022-12-23T01:29:25.148Z,16.57
2022-12-23T01:31:52.363Z,16.57
2022-12-23T01:34:19.995Z,16.52
2022-12-23T01:36:47.073Z,16.57
2022-12-23T01:39:14.396Z,16.60
2022-12-23T01:41:41.545Z,16.59
2022-12-23T01:44:41.867Z,16.53
2022-12-23T01:47:16.488Z,16.57
2022-12-23T01:49:44.627Z,16.59
2022-12-23T01:52:13.688Z,16.60
2022-12-23T01:54:43.432Z,16.52
2022-12-23T01:57:11.142Z,16.53
2022-12-23T01:59:38.807Z,16.64
2022-12-23T02:02:06.151Z,16.77
2022-12-23T02:04:34.953Z,16.77
2022-12-23T02:07:03.355Z,16.76
2022-12-23T02:09:32.709Z,16.75
2022-12-23T02:12:43.560Z,16.72
2022-12-23T02:15:26.707Z,16.80
2022-12-23T02:18:10.466Z,16.74
2022-12-23T02:21:05.706Z,16.85
2022-12-23T02:24:00.366Z,17.04
2022-12-23T02:27:05.602Z,17.19
2022-12-23T02:30:01.897Z,17.31
2022-12-23T02:32:48.625Z,17.44
2022-12-23T02:35:29.271Z,17.54
2022-12-23T02:38:09.763Z,17.63
2022-12-23T02:40:45.248Z,17.65
2022-12-23T02:43:23.861Z,17.68
2022-12-23T02:46:00.439Z,17.58
2022-12-23T02:48:35.455Z,17.67
2022-12-23T02:51:06.474Z,17.59
2022-12-23T02:53:38.028Z,17.77
2022-12-23T02:56:09.050Z,17.81
2022-12-23T02:58:43.102Z,17.75
2022-12-23T03:01:14.868Z,17.82
2022-12-23T03:03:47.654Z,17.82
2022-12-23T03:06:22.292Z,17.66
2022-12-23T03:08:54.105Z,17.79
2022-12-23T03:11:21.289Z,17.83
2022-12-23T03:14:19.669Z,17.84
2022-12-23T03:17:01.046Z,17.80
2022-12-23T03:19:40.170Z,17.64
2022-12-23T03:22:19.987Z,17.78
2022-12-23T03:24:56.457Z,17.73
2022-12-23T03:27:31.237Z,17.83
2022-12-23T03:30:05.973Z,17.26
2022-12-23T03:32:39.230Z,17.68
2022-12-23T03:35:14.056Z,17.73
2022-12-23T03:37:46.877Z,17.69
2022-12-23T03:40:19.677Z,17.59
2022-12-23T03:42:53.122Z,17.71
2022-12-23T03:45:41.978Z,17.79
2022-12-23T03:48:19.700Z,17.79
2022-12-23T03:50:54.547Z,17.70
2022-12-23T03:53:28.572Z,17.75
2022-12-23T03:56:03.004Z,17.72
2022-12-23T03:58:39.080Z,17.69
2022-12-23T04:01:18.293Z,17.74
2022-12-23T04:03:56.243Z,17.77
2022-12-23T04:06:33.426Z,17.73
2022-12-23T04:09:04.542Z,17.88
2022-12-23T04:11:33.422Z,17.83
2022-12-23T04:14:00.613Z,17.92
2022-12-23T04:16:29.931Z,17.95
2022-12-23T04:18:57.128Z,17.93
2022-12-23T04:21:26.874Z,17.78
2022-12-23T04:23:53.994Z,17.83
2022-12-23T04:26:21.238Z,17.84
2022-12-23T04:28:48.457Z,17.83
2022-12-23T04:31:15.528Z,17.85
2022-12-23T04:33:42.832Z,17.80
2022-12-23T04:36:09.955Z,17.79
2022-12-23T04:38:38.482Z,17.75
2022-12-23T04:41:05.629Z,17.81
2022-12-23T04:43:32.755Z,17.79
2022-12-23T04:45:59.784Z,17.82
2022-12-23T04:48:27.080Z,17.79
2022-12-23T04:50:54.433Z,17.86
2022-12-23T04:53:21.643Z,17.88
2022-12-23T04:55:52.268Z,17.84
2022-12-23T04:58:19.445Z,17.80
2022-12-23T05:00:46.692Z,17.81
2022-12-23T05:03:14.213Z,17.87
2022-12-23T05:05:43.572Z,17.88
2022-12-23T05:08:10.720Z,17.86
2022-12-23T05:10:37.863Z,17.80
2022-12-23T05:13:06.360Z,17.76
2022-12-23T05:15:33.556Z,17.88
2022-12-23T05:18:00.773Z,17.95
2022-12-23T05:20:28.002Z,17.99
2022-12-23T05:22:55.145Z,18.00
2022-12-23T05:25:22.279Z,18.02
2022-12-23T05:27:49.477Z,18.06
2022-12-23T05:30:18.243Z,17.98
2022-12-23T05:32:45.394Z,17.81
2022-12-23T05:35:12.633Z,17.76
2022-12-23T05:37:39.852Z,17.75
2022-12-23T05:40:08.472Z,17.73
2022-12-23T05:42:35.852Z,17.83
2022-12-23T05:45:03.094Z,17.79
2022-12-23T05:47:31.768Z,17.83
2022-12-23T05:49:59.012Z,17.85
2022-12-23T05:52:26.155Z,17.82
2022-12-23T05:54:54.128Z,17.79
2022-12-23T05:57:21.674Z,17.89
2022-12-23T05:59:49.033Z,17.89
2022-12-23T06:02:16.482Z,17.86
2022-12-23T06:04:45.251Z,17.89
2022-12-23T06:07:12.402Z,17.89
2022-12-23T06:09:39.738Z,17.89
2022-12-23T06:12:07.388Z,17.87
2022-12-23T06:14:34.458Z,17.94
2022-12-23T06:17:01.726Z,17.94
2022-12-23T06:19:29.013Z,17.94
2022-12-23T06:21:57.707Z,17.98
2022-12-23T06:24:24.895Z,18.06
2022-12-23T06:26:56.830Z,18.02
2022-12-23T06:29:25.074Z,18.04
2022-12-23T06:31:52.444Z,18.03
2022-12-23T06:34:19.634Z,17.98
2022-12-23T06:36:46.983Z,18.03
2022-12-23T06:39:15.622Z,18.05
2022-12-23T06:41:42.887Z,18.01
2022-12-23T06:44:10.031Z,18.01
2022-12-23T06:46:37.217Z,18.05
2022-12-23T06:49:09.153Z,17.91
2022-12-23T06:51:39.989Z,17.20
2022-12-23T06:54:07.289Z,17.01
2022-12-23T06:56:35.833Z,17.17
2022-12-23T06:59:03.038Z,17.45
2022-12-23T07:01:30.442Z,17.59
2022-12-23T07:03:57.875Z,17.64
2022-12-23T07:06:25.120Z,17.66
2022-12-23T07:08:52.384Z,17.65
2022-12-23T07:11:19.576Z,17.44
2022-12-23T07:13:48.406Z,17.65
2022-12-23T07:16:15.625Z,17.71
2022-12-23T07:18:42.896Z,17.80
2022-12-23T07:21:19.790Z,17.89
2022-12-23T07:23:52.562Z,17.87
2022-12-23T07:26:19.707Z,17.83
2022-12-23T07:28:48.340Z,17.89
2022-12-23T07:31:16.119Z,17.89
2022-12-23T07:33:44.037Z,17.98
2022-12-23T07:36:11.487Z,18.01
2022-12-23T07:38:38.653Z,17.99
2022-12-23T07:41:05.909Z,18.61
2022-12-23T07:43:33.211Z,18.95
2022-12-23T07:46:06.849Z,19.06
2022-12-23T07:48:34.486Z,19.28
2022-12-23T07:51:02.060Z,18.95
2022-12-23T07:53:29.351Z,18.76
2022-12-23T07:55:57.154Z,18.64
2022-12-23T07:58:24.928Z,18.53
2022-12-23T08:00:59.718Z,18.50
2022-12-23T08:03:28.973Z,18.42
2022-12-23T08:06:05.101Z,18.36
2022-12-23T08:08:33.681Z,18.29
2022-12-23T08:11:02.941Z,18.13
2022-12-23T08:13:32.067Z,18.25
2022-12-23T08:16:01.654Z,18.26
2022-12-23T08:18:33.134Z,18.12
2022-12-23T08:21:02.480Z,18.01
2022-12-23T08:23:31.190Z,18.18
2022-12-23T08:26:00.471Z,18.16
2022-12-23T08:28:28.056Z,18.13
2022-12-23T08:30:55.332Z,18.15
2022-12-23T08:33:22.876Z,18.64
2022-12-23T08:35:54.607Z,19.00
2022-12-23T08:38:21.951Z,19.41
2022-12-23T08:40:49.286Z,19.59
2022-12-23T08:43:16.503Z,19.78
2022-12-23T08:45:43.809Z,19.94
2022-12-23T08:48:11.296Z,19.87
2022-12-23T08:50:38.991Z,19.67
2022-12-23T08:53:08.324Z,19.36
2022-12-23T08:55:39.992Z,19.14
2022-12-23T08:58:08.001Z,19.01
2022-12-23T09:00:36.268Z,18.91
2022-12-23T09:03:04.002Z,18.80
2022-12-23T09:05:31.647Z,18.69
2022-12-23T09:07:59.633Z,18.64
2022-12-23T09:10:28.399Z,18.59
2022-12-23T09:12:57.958Z,18.54
2022-12-23T09:15:28.420Z,18.58
2022-12-23T09:17:55.585Z,18.40
2022-12-23T09:20:22.786Z,18.27
2022-12-23T09:22:50.214Z,18.31
2022-12-23T09:25:17.509Z,18.34
2022-12-23T09:27:46.194Z,18.49
2022-12-23T09:30:14.586Z,18.57
2022-12-23T09:32:41.965Z,18.58
2022-12-23T09:35:10.046Z,18.59
2022-12-23T09:37:37.299Z,18.50
2022-12-23T09:40:06.398Z,18.49
2022-12-23T09:42:53.493Z,18.53
2022-12-23T09:45:43.245Z,18.58
2022-12-23T09:48:16.557Z,18.62
2022-12-23T09:50:44.325Z,18.51
2022-12-23T09:53:18.248Z,18.59
2022-12-23T09:55:52.875Z,18.59
2022-12-23T09:58:30.159Z,18.55
2022-12-23T10:01:11.137Z,18.50
2022-12-23T10:03:59.367Z,18.54
2022-12-23T10:06:30.592Z,18.60
2022-12-23T10:09:02.828Z,18.59
2022-12-23T10:11:34.372Z,18.60
2022-12-23T10:14:14.876Z,18.61
2022-12-23T10:16:47.299Z,18.59
2022-12-23T10:19:23.909Z,18.54
2022-12-23T10:21:56.245Z,18.57
2022-12-23T10:24:26.274Z,18.69
2022-12-23T10:26:55.479Z,18.69
2022-12-23T10:29:26.560Z,18.68
2022-12-23T10:32:07.128Z,18.75
2022-12-23T10:34:45.018Z,18.78
2022-12-23T10:37:24.930Z,18.83
2022-12-23T10:40:09.191Z,18.86
2022-12-23T10:42:44.253Z,18.81
2022-12-23T10:45:28.419Z,18.83
2022-12-23T10:48:17.898Z,18.49
2022-12-23T10:50:59.526Z,18.70
2022-12-23T10:53:37.463Z,18.73
2022-12-23T10:56:07.631Z,18.67
2022-12-23T10:58:40.777Z,18.68
2022-12-23T11:01:24.064Z,18.83
2022-12-23T11:04:03.435Z,18.90
2022-12-23T11:06:37.233Z,18.89
2022-12-23T11:09:07.209Z,18.90
2022-12-23T11:11:59.575Z,18.99
2022-12-23T11:14:36.403Z,18.98
2022-12-23T11:17:17.948Z,18.91
2022-12-23T11:19:45.453Z,18.82
2022-12-23T11:22:24.641Z,18.90
2022-12-23T11:24:55.383Z,18.66
2022-12-23T11:27:23.259Z,18.85
2022-12-23T11:29:55.065Z,18.91
2022-12-23T11:32:27.692Z,18.97
2022-12-23T11:34:56.702Z,18.89
2022-12-23T11:37:31.037Z,18.88
2022-12-23T11:39:58.273Z,18.97
2022-12-23T11:42:31.414Z,18.98
2022-12-23T11:45:00.776Z,18.96
2022-12-23T11:47:38.752Z,18.72
2022-12-23T11:50:31.375Z,18.62
2022-12-23T11:53:10.397Z,18.80
2022-12-23T11:55:45.434Z,18.75
2022-12-23T11:58:19.917Z,18.72
2022-12-23T12:00:56.063Z,18.74
2022-12-23T12:03:31.369Z,18.27
2022-12-23T12:06:03.872Z,18.33
2022-12-23T12:08:34.072Z,18.40
2022-12-23T12:11:06.194Z,18.35
2022-12-23T12:13:40.114Z,18.36
2022-12-23T12:16:31.314Z,18.33
2022-12-23T12:19:05.474Z,18.37
2022-12-23T12:21:38.103Z,18.39
2022-12-23T12:24:18.845Z,18.37
2022-12-23T12:26:52.464Z,18.32
2022-12-23T12:29:30.976Z,18.08
2022-12-23T12:32:01.702Z,18.19
2022-12-23T12:34:42.137Z,17.79
2022-12-23T12:37:22.358Z,18.08
2022-12-23T12:39:57.773Z,18.08
2022-12-23T12:42:34.631Z,18.06
2022-12-23T12:45:18.072Z,17.93
2022-12-23T12:48:02.159Z,17.92
2022-12-23T12:50:48.883Z,17.79
2022-12-23T12:53:21.444Z,18.00
2022-12-23T12:55:55.861Z,18.06
2022-12-23T12:58:25.138Z,18.08
2022-12-23T13:01:07.791Z,18.14
2022-12-23T13:04:03.251Z,18.17
2022-12-23T13:06:42.612Z,17.78
2022-12-23T13:09:23.062Z,18.08
2022-12-23T13:11:59.533Z,18.09
2022-12-23T13:14:41.976Z,18.13
2022-12-23T13:17:19.927Z,18.18
2022-12-23T13:20:00.568Z,18.05
2022-12-23T13:22:34.231Z,18.00
2022-12-23T13:25:09.320Z,18.11
2022-12-23T13:27:46.742Z,18.22
2022-12-23T13:30:18.632Z,18.28
2022-12-23T13:33:13.393Z,18.03
2022-12-23T13:36:06.738Z,18.15
2022-12-23T13:38:57.826Z,18.25
2022-12-23T13:41:33.157Z,18.21
2022-12-23T13:44:03.013Z,18.33
2022-12-23T13:46:44.327Z,18.35
2022-12-23T13:49:25.536Z,18.35
2022-12-23T13:52:04.695Z,18.30
2022-12-23T13:54:46.781Z,18.34
2022-12-23T13:57:31.953Z,18.33
2022-12-23T14:00:06.291Z,18.32
2022-12-23T14:02:50.642Z,18.34
2022-12-23T14:05:31.356Z,18.33
2022-12-23T14:08:00.732Z,18.35
2022-12-23T14:10:37.520Z,18.32
2022-12-23T14:13:08.172Z,18.30
2022-12-23T14:16:14.773Z,18.29
2022-12-23T14:19:07.172Z,18.32
2022-12-23T14:21:46.872Z,18.30
2022-12-23T14:24:49.303Z,18.30
2022-12-23T14:27:35.727Z,18.20
2022-12-23T14:30:13.383Z,18.16
2022-12-23T14:32:47.724Z,18.02
2022-12-23T14:35:53.507Z,18.12
2022-12-23T14:38:31.589Z,18.01
2022-12-23T14:41:23.460Z,17.74
2022-12-23T14:44:00.980Z,18.11
2022-12-23T14:46:58.334Z,18.15
2022-12-23T14:49:55.848Z,18.20
2022-12-23T14:53:07.270Z,18.24
2022-12-23T14:55:55.964Z,18.16
2022-12-23T14:58:52.731Z,18.09
2022-12-23T15:01:30.249Z,18.28
2022-12-23T15:04:01.757Z,18.26
2022-12-23T15:06:36.155Z,18.21
2022-12-23T15:09:05.245Z,18.35
2022-12-23T15:11:36.037Z,18.36
2022-12-23T15:14:09.924Z,18.38
2022-12-23T15:16:39.761Z,18.43
2022-12-23T15:19:19.058Z,18.22
2022-12-23T15:21:50.365Z,18.08
2022-12-23T15:24:23.372Z,17.99
2022-12-23T15:27:25.418Z,18.08
2022-12-23T15:30:15.944Z,18.24
2022-12-23T15:33:01.982Z,17.97
2022-12-23T15:36:06.113Z,17.93
2022-12-23T15:38:38.907Z,18.18
2022-12-23T15:41:15.205Z,18.30
2022-12-23T15:43:43.754Z,17.86
2022-12-23T15:46:18.912Z,18.15
2022-12-23T15:48:50.261Z,18.16
2022-12-23T15:51:50.137Z,18.13
2022-12-23T15:54:24.505Z,18.23
2022-12-23T15:56:54.252Z,18.31
2022-12-23T15:59:26.936Z,18.37
2022-12-23T16:01:54.871Z,18.63
2022-12-23T16:04:28.081Z,18.47
2022-12-23T16:06:56.241Z,18.53
2022-12-23T16:09:31.983Z,18.58
2022-12-23T16:12:01.442Z,18.49
2022-12-23T16:14:38.228Z,18.51
2022-12-23T16:17:24.612Z,18.46
2022-12-23T16:19:55.034Z,18.45
2022-12-23T16:22:28.297Z,18.38
2022-12-23T16:25:11.047Z,18.35
2022-12-23T16:27:42.836Z,18.41
2022-12-23T16:30:17.950Z,18.34
2022-12-23T16:32:50.987Z,18.33
2022-12-23T16:35:30.746Z,18.41
2022-12-23T16:38:10.213Z,18.30
2022-12-23T16:40:37.524Z,17.75
2022-12-23T16:43:04.804Z,17.91
2022-12-23T16:45:34.214Z,18.04
2022-12-23T16:48:07.757Z,18.20
2022-12-23T16:50:36.653Z,18.22
2022-12-23T16:53:04.442Z,18.21
2022-12-23T16:55:31.666Z,18.26
2022-12-23T16:57:58.907Z,18.08
2022-12-23T17:00:26.294Z,17.69
2022-12-23T17:02:53.594Z,17.89
2022-12-23T17:05:23.119Z,17.91
2022-12-23T17:07:51.937Z,17.92
2022-12-23T17:10:19.924Z,18.00
2022-12-23T17:12:49.598Z,18.12
2022-12-23T17:15:20.025Z,18.20
2022-12-23T17:17:53.214Z,18.21
2022-12-23T17:20:23.510Z,18.22
2022-12-23T17:22:56.001Z,18.20
2022-12-23T17:25:26.596Z,18.20
2022-12-23T17:27:54.602Z,18.04
2022-12-23T17:30:24.026Z,18.16
2022-12-23T17:32:55.890Z,18.03
2022-12-23T17:35:24.065Z,18.13
2022-12-23T17:37:53.452Z,18.20
2022-12-23T17:40:20.666Z,18.22
2022-12-23T17:42:48.681Z,18.06
2022-12-23T17:45:24.757Z,18.07
2022-12-23T17:47:52.240Z,18.12
2022-12-23T17:50:20.009Z,18.18
2022-12-23T17:52:47.363Z,18.22
2022-12-23T17:55:20.966Z,18.11
2022-12-23T17:57:48.587Z,18.20
2022-12-23T18:00:28.102Z,18.19
2022-12-23T18:03:00.986Z,17.70
2022-12-23T18:05:30.405Z,17.28
2022-12-23T18:08:00.052Z,17.73
2022-12-23T18:10:33.682Z,17.70
2022-12-23T18:13:04.159Z,18.00
2022-12-23T18:15:35.627Z,18.01
2022-12-23T18:18:13.341Z,18.05
2022-12-23T18:20:42.454Z,18.13
2022-12-23T18:23:14.240Z,18.22
2022-12-23T18:25:43.442Z,18.30
2022-12-23T18:28:11.559Z,18.37
2022-12-23T18:30:38.928Z,18.30
2022-12-23T18:33:06.480Z,18.31
2022-12-23T18:35:38.222Z,18.30
2022-12-23T18:38:05.761Z,18.31
2022-12-23T18:40:33.356Z,18.35
2022-12-23T18:43:01.982Z,18.31
2022-12-23T18:45:33.482Z,18.20
2022-12-23T18:48:01.661Z,18.24
2022-12-23T18:50:29.520Z,18.30
2022-12-23T18:52:57.111Z,18.29
2022-12-23T18:55:24.938Z,18.23
2022-12-23T18:57:52.879Z,18.09
2022-12-23T19:00:24.200Z,18.14
2022-12-23T19:02:53.327Z,18.20
2022-12-23T19:05:23.193Z,18.19
2022-12-23T19:07:51.717Z,17.82
2022-12-23T19:10:21.620Z,17.82
2022-12-23T19:12:48.918Z,17.73
2022-12-23T19:15:16.258Z,17.83
2022-12-23T19:17:45.340Z,17.35
2022-12-23T19:20:14.998Z,16.95
2022-12-23T19:22:42.127Z,17.37
2022-12-23T19:25:16.079Z,17.78
2022-12-23T19:27:44.131Z,17.99
2022-12-23T19:30:14.079Z,18.13
2022-12-23T19:32:41.499Z,17.93
2022-12-23T19:35:13.763Z,18.00
2022-12-23T19:37:41.320Z,18.20
2022-12-23T19:40:10.262Z,18.28
2022-12-23T19:42:37.931Z,18.33
2022-12-23T19:45:06.888Z,18.23
2022-12-23T19:47:34.100Z,17.02
2022-12-23T19:50:01.350Z,17.69
2022-12-23T19:52:30.165Z,17.35
2022-12-23T19:54:57.347Z,17.66
2022-12-23T19:57:24.441Z,17.99
2022-12-23T19:59:51.606Z,17.99
2022-12-23T20:02:18.777Z,18.12
2022-12-23T20:04:46.402Z,18.22
2022-12-23T20:07:13.638Z,17.94
2022-12-23T20:09:42.281Z,17.87
2022-12-23T20:12:09.440Z,17.97
2022-12-23T20:14:36.504Z,17.89
2022-12-23T20:17:03.720Z,17.84
2022-12-23T20:19:30.926Z,20.04
2022-12-23T20:21:58.083Z,20.79
2022-12-23T20:24:25.342Z,21.47
2022-12-23T20:26:54.040Z,21.59
2022-12-23T20:29:21.379Z,21.16
2022-12-23T20:31:48.692Z,20.46
2022-12-23T20:34:17.880Z,20.08
2022-12-23T20:36:45.354Z,19.72
2022-12-23T20:39:13.211Z,19.53
2022-12-23T20:41:40.401Z,19.36
2022-12-23T20:44:34.023Z,19.17
2022-12-23T20:46:56.307Z,19.07
2022-12-23T20:49:23.640Z,18.96
2022-12-23T20:51:50.796Z,18.90
2022-12-23T20:54:18.026Z,18.82
2022-12-23T20:56:45.461Z,18.71
2022-12-23T20:59:14.163Z,18.69
2022-12-23T21:01:41.956Z,18.64
2022-12-23T21:04:12.021Z,18.57
2022-12-23T21:06:39.446Z,18.55
2022-12-23T21:09:08.497Z,18.49
2022-12-23T21:11:38.283Z,18.44
2022-12-23T21:14:07.038Z,18.41
2022-12-23T21:16:37.547Z,18.43
2022-12-23T21:19:05.681Z,18.36
2022-12-23T21:21:32.868Z,18.40
2022-12-23T21:24:03.123Z,18.40
2022-12-23T21:26:31.661Z,18.41
2022-12-23T21:29:01.547Z,18.45
2022-12-23T21:31:30.524Z,18.44
2022-12-23T21:33:59.358Z,18.47
2022-12-23T21:36:30.584Z,18.49
2022-12-23T21:38:59.561Z,18.49
2022-12-23T21:41:30.929Z,18.54
2022-12-23T21:43:59.945Z,18.50
2022-12-23T21:46:29.177Z,18.50
2022-12-23T21:48:59.707Z,18.43
2022-12-23T21:51:35.026Z,18.45
2022-12-23T21:54:06.105Z,18.45
2022-12-23T21:56:33.909Z,18.23
2022-12-23T21:59:03.679Z,18.16
2022-12-23T22:01:32.312Z,18.36
2022-12-23T22:04:01.241Z,18.26
2022-12-23T22:06:32.308Z,18.41
2022-12-23T22:09:01.187Z,18.45
2022-12-23T22:11:30.720Z,18.47
2022-12-23T22:13:59.652Z,18.26
2022-12-23T22:16:29.583Z,18.39
2022-12-23T22:18:59.023Z,18.44
2022-12-23T22:21:30.487Z,18.38
2022-12-23T22:23:58.323Z,18.46
2022-12-23T22:26:29.083Z,18.50
2022-12-23T22:28:58.022Z,18.42
2022-12-23T22:31:32.326Z,18.43
2022-12-23T22:34:00.674Z,18.50
2022-12-23T22:36:29.643Z,18.52
2022-12-23T22:38:59.644Z,18.55
2022-12-23T22:41:28.197Z,18.53
2022-12-23T22:43:56.225Z,18.48
2022-12-23T22:46:25.177Z,18.53
2022-12-23T22:48:53.485Z,18.47
2022-12-23T22:51:22.752Z,18.44
2022-12-23T22:53:51.806Z,18.46
2022-12-23T22:56:20.748Z,18.53
2022-12-23T22:58:48.832Z,18.47
2022-12-23T23:01:22.332Z,18.49
2022-12-23T23:03:50.477Z,18.51
2022-12-23T23:06:17.803Z,18.55
2022-12-23T23:08:44.960Z,18.44
2022-12-23T23:11:13.501Z,18.55
2022-12-23T23:13:40.786Z,18.58
2022-12-23T23:16:08.877Z,18.37
2022-12-23T23:18:36.059Z,18.36
2022-12-23T23:21:03.532Z,18.13
2022-12-23T23:23:31.303Z,18.04
2022-12-23T23:25:58.838Z,18.32
2022-12-23T23:28:28.861Z,17.82
2022-12-23T23:31:23.928Z,18.18
2022-12-23T23:33:43.445Z,18.07
2022-12-23T23:36:11.529Z,18.36
2022-12-23T23:38:39.062Z,18.08
2022-12-23T23:41:06.277Z,18.25
2022-12-23T23:43:34.999Z,18.24
2022-12-23T23:46:02.160Z,18.29
2022-12-23T23:48:29.377Z,18.33
2022-12-23T23:51:05.165Z,18.19
2022-12-23T23:53:32.523Z,18.31
2022-12-23T23:56:05.321Z,18.42
2022-12-23T23:58:34.872Z,18.36
